sensor_id;sensor_type;location;lat;lon;timestamp;temperature;humidity
17728;DHT22;8984;49.268;12.302;2023-05-07T00:00:11;15.20;99.90
17728;DHT22;8984;49.268;12.302;2023-05-07T00:02:41;15.20;99.90
17728;DHT22;8984;49.268;12.302;2023-05-07T00:05:22;15.10;99.90
17728;DHT22;8984;49.268;12.302;2023-05-07T00:07:55;15.00;99.90
17728;DHT22;8984;49.268;12.302;2023-05-07T00:10:31;15.00;99.90
17728;DHT22;8984;49.268;12.302;2023-05-07T00:13:14;15.00;99.90
17728;DHT22;8984;49.268;12.302;2023-05-07T00:18:45;15.00;99.90
17728;DHT22;8984;49.268;12.302;2023-05-07T00:21:12;14.90;99.90
17728;DHT22;8984;49.268;12.302;2023-05-07T00:23:39;14.90;99.90
17728;DHT22;8984;49.268;12.302;2023-05-07T00:26:05;14.80;99.90
17728;DHT22;8984;49.268;12.302;2023-05-07T00:28:32;14.80;99.90
17728;DHT22;8984;49.268;12.302;2023-05-07T00:30:59;14.80;99.90
17728;DHT22;8984;49.268;12.302;2023-05-07T00:33:26;14.80;99.90
17728;DHT22;8984;49.268;12.302;2023-05-07T00:35:54;14.80;99.90
17728;DHT22;8984;49.268;12.302;2023-05-07T00:38:21;14.70;99.90
17728;DHT22;8984;49.268;12.302;2023-05-07T00:40:48;14.60;99.90
17728;DHT22;8984;49.268;12.302;2023-05-07T00:43:16;14.60;99.90
17728;DHT22;8984;49.268;12.302;2023-05-07T00:45:42;14.60;99.90
17728;DHT22;8984;49.268;12.302;2023-05-07T00:48:10;14.40;99.90
17728;DHT22;8984;49.268;12.302;2023-05-07T00:50:36;14.40;99.90
17728;DHT22;8984;49.268;12.302;2023-05-07T00:53:05;14.40;99.90
17728;DHT22;8984;49.268;12.302;2023-05-07T00:55:32;14.40;99.90
17728;DHT22;8984;49.268;12.302;2023-05-07T00:57:59;14.40;99.90
17728;DHT22;8984;49.268;12.302;2023-05-07T01:00:26;14.40;99.90
17728;DHT22;8984;49.268;12.302;2023-05-07T01:02:53;14.40;99.90
17728;DHT22;8984;49.268;12.302;2023-05-07T01:05:21;14.30;99.90
17728;DHT22;8984;49.268;12.302;2023-05-07T01:07:50;14.30;99.90
17728;DHT22;8984;49.268;12.302;2023-05-07T01:10:19;14.30;99.90
17728;DHT22;8984;49.268;12.302;2023-05-07T01:12:47;14.20;99.90
17728;DHT22;8984;49.268;12.302;2023-05-07T01:15:15;14.20;99.90
17728;DHT22;8984;49.268;12.302;2023-05-07T01:17:44;14.20;99.90
17728;DHT22;8984;49.268;12.302;2023-05-07T01:20:11;14.10;99.90
17728;DHT22;8984;49.268;12.302;2023-05-07T01:22:40;14.10;99.90
17728;DHT22;8984;49.268;12.302;2023-05-07T01:25:09;14.10;99.90
17728;DHT22;8984;49.268;12.302;2023-05-07T01:27:36;14.00;99.90
17728;DHT22;8984;49.268;12.302;2023-05-07T01:30:03;14.00;99.90
17728;DHT22;8984;49.268;12.302;2023-05-07T01:32:40;14.00;99.90
17728;DHT22;8984;49.268;12.302;2023-05-07T01:35:11;14.00;99.90
17728;DHT22;8984;49.268;12.302;2023-05-07T01:37:40;14.00;99.90
17728;DHT22;8984;49.268;12.302;2023-05-07T01:40:09;13.90;99.90
17728;DHT22;8984;49.268;12.302;2023-05-07T01:42:44;13.90;99.90
17728;DHT22;8984;49.268;12.302;2023-05-07T01:45:14;13.80;99.90
17728;DHT22;8984;49.268;12.302;2023-05-07T01:47:42;13.80;99.90
17728;DHT22;8984;49.268;12.302;2023-05-07T01:50:11;13.70;99.90
17728;DHT22;8984;49.268;12.302;2023-05-07T01:52:45;13.70;99.90
17728;DHT22;8984;49.268;12.302;2023-05-07T01:55:29;13.70;99.90
17728;DHT22;8984;49.268;12.302;2023-05-07T01:57:57;13.70;99.90
17728;DHT22;8984;49.268;12.302;2023-05-07T02:00:30;13.70;99.90
17728;DHT22;8984;49.268;12.302;2023-05-07T02:02:59;13.70;99.90
17728;DHT22;8984;49.268;12.302;2023-05-07T02:05:27;13.70;99.90
17728;DHT22;8984;49.268;12.302;2023-05-07T02:08:04;13.70;99.90
17728;DHT22;8984;49.268;12.302;2023-05-07T02:10:48;13.70;99.90
17728;DHT22;8984;49.268;12.302;2023-05-07T02:13:17;13.70;99.90
17728;DHT22;8984;49.268;12.302;2023-05-07T02:15:50;13.70;99.90
17728;DHT22;8984;49.268;12.302;2023-05-07T02:18:19;13.70;99.90
17728;DHT22;8984;49.268;12.302;2023-05-07T02:20:48;13.70;99.90
17728;DHT22;8984;49.268;12.302;2023-05-07T02:23:20;13.70;99.90
17728;DHT22;8984;49.268;12.302;2023-05-07T02:25:48;13.70;99.90
17728;DHT22;8984;49.268;12.302;2023-05-07T02:28:17;13.70;99.90
17728;DHT22;8984;49.268;12.302;2023-05-07T02:30:49;13.70;99.90
17728;DHT22;8984;49.268;12.302;2023-05-07T02:33:23;13.70;99.90
17728;DHT22;8984;49.268;12.302;2023-05-07T02:35:56;13.70;99.90
17728;DHT22;8984;49.268;12.302;2023-05-07T02:38:43;13.70;99.90
17728;DHT22;8984;49.268;12.302;2023-05-07T02:41:42;13.70;99.90
17728;DHT22;8984;49.268;12.302;2023-05-07T02:44:11;13.70;99.90
17728;DHT22;8984;49.268;12.302;2023-05-07T02:46:45;13.60;99.90
17728;DHT22;8984;49.268;12.302;2023-05-07T02:49:13;13.60;99.90
17728;DHT22;8984;49.268;12.302;2023-05-07T02:51:46;13.60;99.90
17728;DHT22;8984;49.268;12.302;2023-05-07T02:54:18;13.60;99.90
17728;DHT22;8984;49.268;12.302;2023-05-07T02:56:52;13.60;99.90
17728;DHT22;8984;49.268;12.302;2023-05-07T02:59:30;13.60;99.90
17728;DHT22;8984;49.268;12.302;2023-05-07T03:02:01;13.50;99.90
17728;DHT22;8984;49.268;12.302;2023-05-07T03:04:30;13.50;99.90
17728;DHT22;8984;49.268;12.302;2023-05-07T03:06:57;13.50;99.90
17728;DHT22;8984;49.268;12.302;2023-05-07T03:09:31;13.50;99.90
17728;DHT22;8984;49.268;12.302;2023-05-07T03:12:02;13.50;99.90
17728;DHT22;8984;49.268;12.302;2023-05-07T03:14:32;13.50;99.90
17728;DHT22;8984;49.268;12.302;2023-05-07T03:17:01;13.50;99.90
17728;DHT22;8984;49.268;12.302;2023-05-07T03:19:30;13.40;99.90
17728;DHT22;8984;49.268;12.302;2023-05-07T03:22:05;13.50;99.90
17728;DHT22;8984;49.268;12.302;2023-05-07T03:24:50;13.50;99.90
17728;DHT22;8984;49.268;12.302;2023-05-07T03:27:26;13.50;99.90
17728;DHT22;8984;49.268;12.302;2023-05-07T03:29:58;13.50;99.90
17728;DHT22;8984;49.268;12.302;2023-05-07T03:32:28;13.40;99.90
17728;DHT22;8984;49.268;12.302;2023-05-07T03:35:01;13.50;99.90
17728;DHT22;8984;49.268;12.302;2023-05-07T03:37:38;13.50;99.90
17728;DHT22;8984;49.268;12.302;2023-05-07T03:40:14;13.50;99.90
17728;DHT22;8984;49.268;12.302;2023-05-07T03:42:42;13.60;99.90
17728;DHT22;8984;49.268;12.302;2023-05-07T03:45:17;13.60;99.90
17728;DHT22;8984;49.268;12.302;2023-05-07T03:47:52;13.60;99.90
17728;DHT22;8984;49.268;12.302;2023-05-07T03:50:23;13.60;99.90
17728;DHT22;8984;49.268;12.302;2023-05-07T03:52:54;13.60;99.90
17728;DHT22;8984;49.268;12.302;2023-05-07T03:55:24;13.70;99.90
17728;DHT22;8984;49.268;12.302;2023-05-07T03:57:57;13.70;99.90
17728;DHT22;8984;49.268;12.302;2023-05-07T04:00:26;13.70;99.90
17728;DHT22;8984;49.268;12.302;2023-05-07T04:02:59;13.80;99.90
17728;DHT22;8984;49.268;12.302;2023-05-07T04:05:28;13.80;99.90
17728;DHT22;8984;49.268;12.302;2023-05-07T04:07:57;13.90;99.90
17728;DHT22;8984;49.268;12.302;2023-05-07T04:10:26;13.90;99.90
17728;DHT22;8984;49.268;12.302;2023-05-07T04:12:59;14.10;99.90
17728;DHT22;8984;49.268;12.302;2023-05-07T04:15:35;14.30;99.90
17728;DHT22;8984;49.268;12.302;2023-05-07T04:18:03;14.40;99.90
17728;DHT22;8984;49.268;12.302;2023-05-07T04:20:57;14.70;99.90
17728;DHT22;8984;49.268;12.302;2023-05-07T04:23:26;15.10;99.90
17728;DHT22;8984;49.268;12.302;2023-05-07T04:25:58;15.50;99.90
17728;DHT22;8984;49.268;12.302;2023-05-07T04:28:28;15.70;99.90
17728;DHT22;8984;49.268;12.302;2023-05-07T04:30:56;16.00;99.90
17728;DHT22;8984;49.268;12.302;2023-05-07T04:33:28;16.30;99.90
17728;DHT22;8984;49.268;12.302;2023-05-07T04:36:01;16.70;99.90
17728;DHT22;8984;49.268;12.302;2023-05-07T04:38:32;17.20;99.90
17728;DHT22;8984;49.268;12.302;2023-05-07T04:41:08;17.70;99.90
17728;DHT22;8984;49.268;12.302;2023-05-07T04:43:38;18.10;99.90
17728;DHT22;8984;49.268;12.302;2023-05-07T04:46:11;18.30;99.90
17728;DHT22;8984;49.268;12.302;2023-05-07T04:48:41;18.50;99.90
17728;DHT22;8984;49.268;12.302;2023-05-07T04:51:20;18.70;99.90
17728;DHT22;8984;49.268;12.302;2023-05-07T04:53:52;19.10;99.90
17728;DHT22;8984;49.268;12.302;2023-05-07T04:56:29;19.50;99.90
17728;DHT22;8984;49.268;12.302;2023-05-07T04:58:58;20.00;99.90
17728;DHT22;8984;49.268;12.302;2023-05-07T05:01:27;20.20;99.90
17728;DHT22;8984;49.268;12.302;2023-05-07T05:03:56;20.20;99.90
17728;DHT22;8984;49.268;12.302;2023-05-07T05:06:26;20.20;99.90
17728;DHT22;8984;49.268;12.302;2023-05-07T05:08:54;20.20;99.90
17728;DHT22;8984;49.268;12.302;2023-05-07T05:11:44;20.20;99.90
17728;DHT22;8984;49.268;12.302;2023-05-07T05:14:21;20.30;99.90
17728;DHT22;8984;49.268;12.302;2023-05-07T05:16:55;20.20;99.90
17728;DHT22;8984;49.268;12.302;2023-05-07T05:19:23;20.10;99.90
17728;DHT22;8984;49.268;12.302;2023-05-07T05:21:51;20.20;99.90
17728;DHT22;8984;49.268;12.302;2023-05-07T05:24:19;20.20;99.90
17728;DHT22;8984;49.268;12.302;2023-05-07T05:26:56;20.20;99.90
17728;DHT22;8984;49.268;12.302;2023-05-07T05:29:25;20.30;99.90
17728;DHT22;8984;49.268;12.302;2023-05-07T05:31:53;20.20;99.90
17728;DHT22;8984;49.268;12.302;2023-05-07T05:37:12;20.30;99.90
17728;DHT22;8984;49.268;12.302;2023-05-07T05:39:42;20.30;99.90
17728;DHT22;8984;49.268;12.302;2023-05-07T05:42:13;20.30;99.90
17728;DHT22;8984;49.268;12.302;2023-05-07T05:44:43;20.30;99.90
17728;DHT22;8984;49.268;12.302;2023-05-07T05:47:23;20.40;99.90
17728;DHT22;8984;49.268;12.302;2023-05-07T05:49:51;20.60;99.90
17728;DHT22;8984;49.268;12.302;2023-05-07T05:52:19;20.80;99.90
17728;DHT22;8984;49.268;12.302;2023-05-07T05:57:46;21.10;99.90
17728;DHT22;8984;49.268;12.302;2023-05-07T06:00:17;21.10;99.90
17728;DHT22;8984;49.268;12.302;2023-05-07T06:02:49;21.10;99.90
17728;DHT22;8984;49.268;12.302;2023-05-07T06:05:20;20.80;99.90
17728;DHT22;8984;49.268;12.302;2023-05-07T06:08:02;20.80;99.90
17728;DHT22;8984;49.268;12.302;2023-05-07T06:10:36;20.40;99.90
17728;DHT22;8984;49.268;12.302;2023-05-07T06:13:11;20.10;99.90
17728;DHT22;8984;49.268;12.302;2023-05-07T06:15:39;19.90;99.90
17728;DHT22;8984;49.268;12.302;2023-05-07T06:18:09;19.60;99.90
17728;DHT22;8984;49.268;12.302;2023-05-07T06:20:39;19.80;99.90
17728;DHT22;8984;49.268;12.302;2023-05-07T06:23:07;19.90;99.90
17728;DHT22;8984;49.268;12.302;2023-05-07T06:25:36;20.00;99.90
17728;DHT22;8984;49.268;12.302;2023-05-07T06:28:05;20.00;99.90
17728;DHT22;8984;49.268;12.302;2023-05-07T06:30:36;20.00;99.90
17728;DHT22;8984;49.268;12.302;2023-05-07T06:33:04;19.70;99.90
17728;DHT22;8984;49.268;12.302;2023-05-07T06:35:34;19.60;99.90
17728;DHT22;8984;49.268;12.302;2023-05-07T06:38:04;19.70;99.90
17728;DHT22;8984;49.268;12.302;2023-05-07T06:40:32;19.80;99.90
17728;DHT22;8984;49.268;12.302;2023-05-07T06:43:07;20.00;99.90
17728;DHT22;8984;49.268;12.302;2023-05-07T06:45:46;20.30;99.90
17728;DHT22;8984;49.268;12.302;2023-05-07T06:48:17;20.40;99.90
17728;DHT22;8984;49.268;12.302;2023-05-07T06:50:57;20.60;99.90
17728;DHT22;8984;49.268;12.302;2023-05-07T06:53:25;20.20;99.90
17728;DHT22;8984;49.268;12.302;2023-05-07T06:55:56;19.70;99.90
17728;DHT22;8984;49.268;12.302;2023-05-07T06:58:24;19.80;99.90
17728;DHT22;8984;49.268;12.302;2023-05-07T07:00:59;19.80;99.90
17728;DHT22;8984;49.268;12.302;2023-05-07T07:03:27;19.80;99.90
17728;DHT22;8984;49.268;12.302;2023-05-07T07:05:59;19.90;99.90
17728;DHT22;8984;49.268;12.302;2023-05-07T07:08:27;19.60;99.90
17728;DHT22;8984;49.268;12.302;2023-05-07T07:11:05;19.60;99.90
17728;DHT22;8984;49.268;12.302;2023-05-07T07:13:47;19.80;99.90
17728;DHT22;8984;49.268;12.302;2023-05-07T07:16:18;19.60;99.90
17728;DHT22;8984;49.268;12.302;2023-05-07T07:18:56;19.60;99.90
17728;DHT22;8984;49.268;12.302;2023-05-07T07:21:26;19.80;99.90
17728;DHT22;8984;49.268;12.302;2023-05-07T07:23:58;19.60;99.90
17728;DHT22;8984;49.268;12.302;2023-05-07T07:26:29;19.80;99.90
17728;DHT22;8984;49.268;12.302;2023-05-07T07:29:03;19.60;99.90
17728;DHT22;8984;49.268;12.302;2023-05-07T07:31:51;19.80;99.90
17728;DHT22;8984;49.268;12.302;2023-05-07T07:34:23;19.90;99.90
17728;DHT22;8984;49.268;12.302;2023-05-07T07:36:52;19.90;99.90
17728;DHT22;8984;49.268;12.302;2023-05-07T07:39:24;20.30;99.90
17728;DHT22;8984;49.268;12.302;2023-05-07T07:41:57;20.40;99.90
17728;DHT22;8984;49.268;12.302;2023-05-07T07:44:32;20.60;99.90
17728;DHT22;8984;49.268;12.302;2023-05-07T07:47:13;20.70;99.90
17728;DHT22;8984;49.268;12.302;2023-05-07T07:49:50;20.60;99.90
17728;DHT22;8984;49.268;12.302;2023-05-07T07:52:19;20.50;99.90
17728;DHT22;8984;49.268;12.302;2023-05-07T07:54:50;20.60;99.90
17728;DHT22;8984;49.268;12.302;2023-05-07T07:57:18;20.70;99.90
17728;DHT22;8984;49.268;12.302;2023-05-07T07:59:55;20.70;99.90
17728;DHT22;8984;49.268;12.302;2023-05-07T08:02:25;20.80;99.90
17728;DHT22;8984;49.268;12.302;2023-05-07T08:04:55;20.90;99.90
17728;DHT22;8984;49.268;12.302;2023-05-07T08:07:23;20.90;99.90
17728;DHT22;8984;49.268;12.302;2023-05-07T08:09:51;20.80;99.90
17728;DHT22;8984;49.268;12.302;2023-05-07T08:12:19;20.70;99.90
17728;DHT22;8984;49.268;12.302;2023-05-07T08:14:48;20.10;99.90
17728;DHT22;8984;49.268;12.302;2023-05-07T08:17:19;20.20;99.90
17728;DHT22;8984;49.268;12.302;2023-05-07T08:19:49;20.10;99.90
17728;DHT22;8984;49.268;12.302;2023-05-07T08:22:18;20.50;99.90
17728;DHT22;8984;49.268;12.302;2023-05-07T08:24:51;20.70;99.90
17728;DHT22;8984;49.268;12.302;2023-05-07T08:27:20;20.60;99.90
17728;DHT22;8984;49.268;12.302;2023-05-07T08:29:58;20.70;99.90
17728;DHT22;8984;49.268;12.302;2023-05-07T08:32:40;20.80;99.90
17728;DHT22;8984;49.268;12.302;2023-05-07T08:38:11;20.80;99.90
17728;DHT22;8984;49.268;12.302;2023-05-07T08:40:40;20.70;99.90
17728;DHT22;8984;49.268;12.302;2023-05-07T08:43:09;20.50;99.90
17728;DHT22;8984;49.268;12.302;2023-05-07T08:45:40;20.50;99.90
17728;DHT22;8984;49.268;12.302;2023-05-07T08:48:18;20.80;99.90
17728;DHT22;8984;49.268;12.302;2023-05-07T08:50:54;20.80;99.90
17728;DHT22;8984;49.268;12.302;2023-05-07T08:53:25;20.80;99.90
17728;DHT22;8984;49.268;12.302;2023-05-07T08:55:53;21.00;99.90
17728;DHT22;8984;49.268;12.302;2023-05-07T08:58:24;21.00;99.90
17728;DHT22;8984;49.268;12.302;2023-05-07T09:00:52;21.00;99.90
17728;DHT22;8984;49.268;12.302;2023-05-07T09:03:20;21.10;99.90
17728;DHT22;8984;49.268;12.302;2023-05-07T09:05:47;21.20;99.90
17728;DHT22;8984;49.268;12.302;2023-05-07T09:08:37;21.30;99.90
17728;DHT22;8984;49.268;12.302;2023-05-07T09:11:08;21.40;99.90
17728;DHT22;8984;49.268;12.302;2023-05-07T09:13:38;21.40;99.90
17728;DHT22;8984;49.268;12.302;2023-05-07T09:16:13;21.20;99.90
17728;DHT22;8984;49.268;12.302;2023-05-07T09:18:42;21.10;99.90
17728;DHT22;8984;49.268;12.302;2023-05-07T09:21:14;21.10;99.90
17728;DHT22;8984;49.268;12.302;2023-05-07T09:23:51;21.10;99.90
17728;DHT22;8984;49.268;12.302;2023-05-07T09:26:21;20.80;99.90
17728;DHT22;8984;49.268;12.302;2023-05-07T09:28:51;20.80;99.90
17728;DHT22;8984;49.268;12.302;2023-05-07T09:31:27;21.10;99.90
17728;DHT22;8984;49.268;12.302;2023-05-07T09:33:55;21.20;99.90
17728;DHT22;8984;49.268;12.302;2023-05-07T09:36:31;21.30;99.90
17728;DHT22;8984;49.268;12.302;2023-05-07T09:39:02;21.40;99.90
17728;DHT22;8984;49.268;12.302;2023-05-07T09:41:45;21.30;99.90
17728;DHT22;8984;49.268;12.302;2023-05-07T09:44:23;21.40;99.90
17728;DHT22;8984;49.268;12.302;2023-05-07T09:47:04;21.70;99.90
17728;DHT22;8984;49.268;12.302;2023-05-07T09:49:40;22.00;99.90
17728;DHT22;8984;49.268;12.302;2023-05-07T09:52:13;22.50;99.90
17728;DHT22;8984;49.268;12.302;2023-05-07T09:54:43;22.60;99.90
17728;DHT22;8984;49.268;12.302;2023-05-07T09:57:15;22.40;99.90
17728;DHT22;8984;49.268;12.302;2023-05-07T09:59:46;22.00;99.90
17728;DHT22;8984;49.268;12.302;2023-05-07T10:02:18;22.40;99.90
17728;DHT22;8984;49.268;12.302;2023-05-07T10:05:10;22.60;99.90
17728;DHT22;8984;49.268;12.302;2023-05-07T10:07:48;22.50;99.90
17728;DHT22;8984;49.268;12.302;2023-05-07T10:10:18;22.30;99.90
17728;DHT22;8984;49.268;12.302;2023-05-07T10:12:47;22.30;99.90
17728;DHT22;8984;49.268;12.302;2023-05-07T10:15:16;22.10;99.90
17728;DHT22;8984;49.268;12.302;2023-05-07T10:17:44;22.30;99.90
17728;DHT22;8984;49.268;12.302;2023-05-07T10:20:13;22.40;99.90
17728;DHT22;8984;49.268;12.302;2023-05-07T10:22:45;22.30;99.90
17728;DHT22;8984;49.268;12.302;2023-05-07T10:25:18;21.70;99.90
17728;DHT22;8984;49.268;12.302;2023-05-07T10:27:51;21.80;99.90
17728;DHT22;8984;49.268;12.302;2023-05-07T10:30:32;21.90;99.90
17728;DHT22;8984;49.268;12.302;2023-05-07T10:33:31;21.60;99.90
17728;DHT22;8984;49.268;12.302;2023-05-07T10:36:02;21.60;99.90
17728;DHT22;8984;49.268;12.302;2023-05-07T10:38:45;21.70;99.90
17728;DHT22;8984;49.268;12.302;2023-05-07T10:41:15;21.80;99.90
17728;DHT22;8984;49.268;12.302;2023-05-07T10:43:48;22.10;99.90
17728;DHT22;8984;49.268;12.302;2023-05-07T10:46:19;21.90;99.90
17728;DHT22;8984;49.268;12.302;2023-05-07T10:52:11;22.20;99.90
17728;DHT22;8984;49.268;12.302;2023-05-07T10:54:39;22.30;99.90
17728;DHT22;8984;49.268;12.302;2023-05-07T10:57:43;22.30;99.90
17728;DHT22;8984;49.268;12.302;2023-05-07T11:00:40;22.20;99.90
17728;DHT22;8984;49.268;12.302;2023-05-07T11:03:08;22.10;99.90
17728;DHT22;8984;49.268;12.302;2023-05-07T11:05:38;22.00;99.90
17728;DHT22;8984;49.268;12.302;2023-05-07T11:08:09;22.10;99.90
17728;DHT22;8984;49.268;12.302;2023-05-07T11:10:51;22.00;99.90
17728;DHT22;8984;49.268;12.302;2023-05-07T11:13:47;21.60;99.90
17728;DHT22;8984;49.268;12.302;2023-05-07T11:16:31;21.80;99.90
17728;DHT22;8984;49.268;12.302;2023-05-07T11:19:02;22.00;99.90
17728;DHT22;8984;49.268;12.302;2023-05-07T11:21:45;22.30;99.90
17728;DHT22;8984;49.268;12.302;2023-05-07T11:24:12;22.40;99.90
17728;DHT22;8984;49.268;12.302;2023-05-07T11:26:47;22.50;99.90
17728;DHT22;8984;49.268;12.302;2023-05-07T11:29:31;22.60;99.90
17728;DHT22;8984;49.268;12.302;2023-05-07T11:32:06;22.70;99.90
17728;DHT22;8984;49.268;12.302;2023-05-07T11:34:42;22.80;99.90
17728;DHT22;8984;49.268;12.302;2023-05-07T11:37:17;22.90;99.90
17728;DHT22;8984;49.268;12.302;2023-05-07T11:40:02;23.00;99.90
17728;DHT22;8984;49.268;12.302;2023-05-07T11:42:32;23.00;99.90
17728;DHT22;8984;49.268;12.302;2023-05-07T11:45:10;23.40;99.90
17728;DHT22;8984;49.268;12.302;2023-05-07T11:47:45;23.60;99.90
17728;DHT22;8984;49.268;12.302;2023-05-07T11:50:26;23.30;99.90
17728;DHT22;8984;49.268;12.302;2023-05-07T11:52:54;23.10;99.90
17728;DHT22;8984;49.268;12.302;2023-05-07T11:55:24;23.30;99.90
17728;DHT22;8984;49.268;12.302;2023-05-07T11:57:52;23.60;99.90
17728;DHT22;8984;49.268;12.302;2023-05-07T12:00:23;23.60;99.90
17728;DHT22;8984;49.268;12.302;2023-05-07T12:02:55;23.70;99.90
17728;DHT22;8984;49.268;12.302;2023-05-07T12:05:26;23.80;99.90
17728;DHT22;8984;49.268;12.302;2023-05-07T12:07:58;23.80;99.90
17728;DHT22;8984;49.268;12.302;2023-05-07T12:10:29;23.40;99.90
17728;DHT22;8984;49.268;12.302;2023-05-07T12:12:58;23.40;99.90
17728;DHT22;8984;49.268;12.302;2023-05-07T12:15:44;23.60;99.90
17728;DHT22;8984;49.268;12.302;2023-05-07T12:18:12;23.80;99.90
17728;DHT22;8984;49.268;12.302;2023-05-07T12:20:42;23.70;99.90
17728;DHT22;8984;49.268;12.302;2023-05-07T12:23:15;23.40;99.90
17728;DHT22;8984;49.268;12.302;2023-05-07T12:25:48;23.30;99.90
17728;DHT22;8984;49.268;12.302;2023-05-07T12:28:47;23.70;99.90
17728;DHT22;8984;49.268;12.302;2023-05-07T12:31:45;23.50;99.90
17728;DHT22;8984;49.268;12.302;2023-05-07T12:34:27;23.80;99.90
17728;DHT22;8984;49.268;12.302;2023-05-07T12:36:58;23.80;99.90
17728;DHT22;8984;49.268;12.302;2023-05-07T12:39:31;24.10;99.90
17728;DHT22;8984;49.268;12.302;2023-05-07T12:42:09;24.20;99.90
17728;DHT22;8984;49.268;12.302;2023-05-07T12:44:45;24.10;99.90
17728;DHT22;8984;49.268;12.302;2023-05-07T12:47:15;24.20;99.90
17728;DHT22;8984;49.268;12.302;2023-05-07T12:49:43;23.90;99.90
17728;DHT22;8984;49.268;12.302;2023-05-07T12:52:19;24.00;99.90
17728;DHT22;8984;49.268;12.302;2023-05-07T12:55:39;24.10;99.90
17728;DHT22;8984;49.268;12.302;2023-05-07T12:58:18;24.20;99.90
17728;DHT22;8984;49.268;12.302;2023-05-07T13:00:48;24.10;99.90
17728;DHT22;8984;49.268;12.302;2023-05-07T13:03:27;23.50;99.90
17728;DHT22;8984;49.268;12.302;2023-05-07T13:05:55;23.50;99.90
17728;DHT22;8984;49.268;12.302;2023-05-07T13:08:30;23.30;99.90
17728;DHT22;8984;49.268;12.302;2023-05-07T13:10:59;23.10;99.90
17728;DHT22;8984;49.268;12.302;2023-05-07T13:13:36;23.30;99.90
17728;DHT22;8984;49.268;12.302;2023-05-07T13:16:08;23.30;99.90
17728;DHT22;8984;49.268;12.302;2023-05-07T13:19:11;23.40;99.90
17728;DHT22;8984;49.268;12.302;2023-05-07T13:21:50;23.40;99.40
17728;DHT22;8984;49.268;12.302;2023-05-07T13:24:21;23.50;99.90
17728;DHT22;8984;49.268;12.302;2023-05-07T13:26:49;23.50;99.90
17728;DHT22;8984;49.268;12.302;2023-05-07T13:29:22;23.60;99.90
17728;DHT22;8984;49.268;12.302;2023-05-07T13:32:04;23.30;98.90
17728;DHT22;8984;49.268;12.302;2023-05-07T13:34:34;23.30;99.80
17728;DHT22;8984;49.268;12.302;2023-05-07T13:37:12;23.30;99.80
17728;DHT22;8984;49.268;12.302;2023-05-07T13:39:40;23.40;99.80
17728;DHT22;8984;49.268;12.302;2023-05-07T13:42:08;23.20;99.50
17728;DHT22;8984;49.268;12.302;2023-05-07T13:44:49;23.50;99.90
17728;DHT22;8984;49.268;12.302;2023-05-07T13:47:29;23.50;99.60
17728;DHT22;8984;49.268;12.302;2023-05-07T13:49:59;23.60;99.30
17728;DHT22;8984;49.268;12.302;2023-05-07T13:52:29;23.70;99.30
17728;DHT22;8984;49.268;12.302;2023-05-07T13:55:02;23.70;99.30
17728;DHT22;8984;49.268;12.302;2023-05-07T13:57:33;23.80;98.70
17728;DHT22;8984;49.268;12.302;2023-05-07T14:00:00;23.50;98.60
17728;DHT22;8984;49.268;12.302;2023-05-07T14:02:30;23.60;98.80
17728;DHT22;8984;49.268;12.302;2023-05-07T14:05:16;23.30;98.70
17728;DHT22;8984;49.268;12.302;2023-05-07T14:08:14;23.10;98.70
17728;DHT22;8984;49.268;12.302;2023-05-07T14:10:46;23.00;98.90
17728;DHT22;8984;49.268;12.302;2023-05-07T14:13:15;23.20;99.00
17728;DHT22;8984;49.268;12.302;2023-05-07T14:15:44;23.10;98.90
17728;DHT22;8984;49.268;12.302;2023-05-07T14:18:17;23.10;97.90
17728;DHT22;8984;49.268;12.302;2023-05-07T14:20:53;22.60;98.90
17728;DHT22;8984;49.268;12.302;2023-05-07T14:23:21;22.70;99.60
17728;DHT22;8984;49.268;12.302;2023-05-07T14:29:19;22.60;99.90
17728;DHT22;8984;49.268;12.302;2023-05-07T14:32:00;22.80;99.90
17728;DHT22;8984;49.268;12.302;2023-05-07T14:34:36;22.80;99.90
17728;DHT22;8984;49.268;12.302;2023-05-07T14:37:19;22.60;99.90
17728;DHT22;8984;49.268;12.302;2023-05-07T14:39:46;22.30;99.90
17728;DHT22;8984;49.268;12.302;2023-05-07T14:42:21;22.30;99.90
17728;DHT22;8984;49.268;12.302;2023-05-07T14:44:49;22.40;99.90
17728;DHT22;8984;49.268;12.302;2023-05-07T14:50:19;22.30;99.50
17728;DHT22;8984;49.268;12.302;2023-05-07T14:53:04;22.30;99.90
17728;DHT22;8984;49.268;12.302;2023-05-07T14:55:35;22.40;99.70
17728;DHT22;8984;49.268;12.302;2023-05-07T14:58:03;21.90;99.90
17728;DHT22;8984;49.268;12.302;2023-05-07T15:00:33;22.30;99.90
17728;DHT22;8984;49.268;12.302;2023-05-07T15:03:09;22.40;99.90
17728;DHT22;8984;49.268;12.302;2023-05-07T15:05:40;22.60;99.90
17728;DHT22;8984;49.268;12.302;2023-05-07T15:08:17;22.40;99.90
17728;DHT22;8984;49.268;12.302;2023-05-07T15:10:50;22.30;99.90
17728;DHT22;8984;49.268;12.302;2023-05-07T15:13:23;22.30;99.90
17728;DHT22;8984;49.268;12.302;2023-05-07T15:16:07;22.20;99.70
17728;DHT22;8984;49.268;12.302;2023-05-07T15:18:37;22.20;99.80
17728;DHT22;8984;49.268;12.302;2023-05-07T15:21:14;22.20;99.80
17728;DHT22;8984;49.268;12.302;2023-05-07T15:23:50;22.30;99.90
17728;DHT22;8984;49.268;12.302;2023-05-07T15:26:21;22.20;99.90
17728;DHT22;8984;49.268;12.302;2023-05-07T15:29:03;22.20;99.90
17728;DHT22;8984;49.268;12.302;2023-05-07T15:31:35;22.20;99.90
17728;DHT22;8984;49.268;12.302;2023-05-07T15:34:19;21.90;99.90
17728;DHT22;8984;49.268;12.302;2023-05-07T15:36:56;21.50;99.90
17728;DHT22;8984;49.268;12.302;2023-05-07T15:39:27;21.80;99.90
17728;DHT22;8984;49.268;12.302;2023-05-07T15:41:56;22.00;99.90
17728;DHT22;8984;49.268;12.302;2023-05-07T15:44:27;22.00;99.90
17728;DHT22;8984;49.268;12.302;2023-05-07T15:47:00;22.10;99.90
17728;DHT22;8984;49.268;12.302;2023-05-07T15:49:28;21.90;99.90
17728;DHT22;8984;49.268;12.302;2023-05-07T15:51:57;21.80;99.90
17728;DHT22;8984;49.268;12.302;2023-05-07T15:54:33;21.80;99.90
17728;DHT22;8984;49.268;12.302;2023-05-07T15:57:01;21.60;99.90
17728;DHT22;8984;49.268;12.302;2023-05-07T15:59:30;21.60;99.90
17728;DHT22;8984;49.268;12.302;2023-05-07T16:01:59;21.50;99.90
17728;DHT22;8984;49.268;12.302;2023-05-07T16:04:26;21.40;99.90
17728;DHT22;8984;49.268;12.302;2023-05-07T16:06:56;21.50;99.90
17728;DHT22;8984;49.268;12.302;2023-05-07T16:09:24;21.50;99.90
17728;DHT22;8984;49.268;12.302;2023-05-07T16:11:56;21.50;99.90
17728;DHT22;8984;49.268;12.302;2023-05-07T16:14:27;21.40;99.90
17728;DHT22;8984;49.268;12.302;2023-05-07T16:17:11;21.20;99.90
17728;DHT22;8984;49.268;12.302;2023-05-07T16:19:41;21.10;99.90
17728;DHT22;8984;49.268;12.302;2023-05-07T16:22:12;21.10;99.90
17728;DHT22;8984;49.268;12.302;2023-05-07T16:24:41;21.20;99.90
17728;DHT22;8984;49.268;12.302;2023-05-07T16:27:18;21.00;99.90